createdAt,value
2023-05-19T00:00:37.178Z,7.07
2023-05-19T00:05:35.372Z,7.11
2023-05-19T00:10:33.030Z,7.09
2023-05-19T00:15:30.397Z,7.05
2023-05-19T00:20:26.790Z,6.98
2023-05-19T00:25:23.219Z,7.01
2023-05-19T00:30:19.686Z,7.13
2023-05-19T00:35:16.762Z,7.10
2023-05-19T00:40:13.586Z,7.17
2023-05-19T00:45:10.627Z,7.16
2023-05-19T00:50:07.336Z,7.10
2023-05-19T00:55:04.176Z,7.09
2023-05-19T01:00:01.001Z,7.09
2023-05-19T01:04:57.457Z,7.05
2023-05-19T01:09:54.052Z,7.01
2023-05-19T01:14:50.864Z,6.95
2023-05-19T01:20:13.576Z,6.91
2023-05-19T01:25:32.942Z,6.87
2023-05-19T01:30:32.499Z,6.98
2023-05-19T01:35:30.619Z,6.99
2023-05-19T01:40:28.815Z,6.87
2023-05-19T01:45:27.821Z,6.81
2023-05-19T01:50:24.542Z,6.78
2023-05-19T01:55:23.313Z,6.89
2023-05-19T02:00:40.129Z,6.87
2023-05-19T02:05:58.757Z,6.83
2023-05-19T02:11:02.603Z,6.87
2023-05-19T02:16:04.504Z,6.82
2023-05-19T02:21:01.841Z,6.74
2023-05-19T02:25:58.246Z,6.73
2023-05-19T02:30:54.688Z,6.71
2023-05-19T02:35:51.128Z,6.76
2023-05-19T02:40:47.832Z,6.77
2023-05-19T02:45:44.234Z,6.70
2023-05-19T02:50:40.699Z,6.66
2023-05-19T02:55:37.430Z,6.64
2023-05-19T03:00:33.991Z,6.71
2023-05-19T03:05:31.129Z,6.65
2023-05-19T03:10:27.926Z,6.59
2023-05-19T03:15:24.434Z,6.52
2023-05-19T03:20:20.846Z,6.51
2023-05-19T03:25:17.583Z,6.49
2023-05-19T03:30:14.660Z,6.47
2023-05-19T03:35:11.166Z,6.49
2023-05-19T03:40:08.551Z,6.48
2023-05-19T03:45:05.380Z,6.45
2023-05-19T03:50:02.246Z,6.42
2023-05-19T03:54:58.707Z,6.44
2023-05-19T03:59:55.112Z,6.52
2023-05-19T04:04:51.624Z,6.64
2023-05-19T04:09:48.623Z,6.74
2023-05-19T04:14:45.130Z,6.83
2023-05-19T04:19:41.641Z,6.89
2023-05-19T04:24:38.025Z,6.98
2023-05-19T04:29:35.641Z,7.12
2023-05-19T04:34:32.144Z,7.17
2023-05-19T04:39:28.534Z,7.25
2023-05-19T04:44:24.971Z,7.33
2023-05-19T04:49:21.365Z,7.48
2023-05-19T04:54:17.784Z,7.67
2023-05-19T04:59:14.235Z,7.75
2023-05-19T05:04:10.684Z,7.86
2023-05-19T05:09:07.788Z,7.96
2023-05-19T05:14:04.382Z,8.04
2023-05-19T05:19:01.816Z,8.17
2023-05-19T05:23:58.585Z,8.29
2023-05-19T05:28:55.066Z,8.55
2023-05-19T05:33:51.630Z,8.69
2023-05-19T05:38:48.062Z,8.94
2023-05-19T05:43:44.493Z,9.12
2023-05-19T05:48:42.699Z,9.51
2023-05-19T05:53:44.594Z,9.83
2023-05-19T05:58:41.179Z,10.27
2023-05-19T06:03:42.808Z,10.35
2023-05-19T06:08:39.281Z,10.54
2023-05-19T06:13:36.625Z,10.95
2023-05-19T06:18:33.218Z,11.22
2023-05-19T06:23:30.630Z,11.56
2023-05-19T06:28:27.129Z,11.65
2023-05-19T06:33:23.968Z,12.12
2023-05-19T06:38:21.481Z,12.21
2023-05-19T06:43:17.971Z,12.75
2023-05-19T06:48:14.403Z,13.07
2023-05-19T06:53:11.070Z,13.12
2023-05-19T06:58:07.979Z,13.33
2023-05-19T07:03:04.536Z,14.00
2023-05-19T07:08:01.701Z,14.38
2023-05-19T07:12:58.566Z,14.15
2023-05-19T07:17:54.956Z,14.68
2023-05-19T07:22:51.347Z,14.61
2023-05-19T07:27:47.788Z,14.79
2023-05-19T07:32:44.238Z,15.19
2023-05-19T07:37:40.624Z,15.12
2023-05-19T07:42:37.144Z,15.22
2023-05-19T07:47:33.606Z,15.36
2023-05-19T07:52:30.027Z,15.32
2023-05-19T07:57:26.405Z,15.62
2023-05-19T08:02:22.871Z,15.21
2023-05-19T08:07:19.269Z,15.18
2023-05-19T08:12:15.663Z,15.70
2023-05-19T08:17:12.192Z,16.38
2023-05-19T08:22:08.914Z,16.84
2023-05-19T08:27:05.674Z,16.84
2023-05-19T08:32:02.746Z,16.59
2023-05-19T08:36:59.746Z,16.54
2023-05-19T08:41:56.242Z,16.72
2023-05-19T08:46:55.201Z,16.54
2023-05-19T08:52:05.399Z,17.15
2023-05-19T08:57:02.231Z,17.61
2023-05-19T09:01:59.138Z,17.13
2023-05-19T09:06:55.510Z,17.43
2023-05-19T09:11:51.907Z,17.68
2023-05-19T09:16:51.055Z,17.67
2023-05-19T09:22:00.111Z,16.85
2023-05-19T09:26:58.506Z,17.20
2023-05-19T09:32:00.902Z,17.69
2023-05-19T09:36:59.799Z,17.87
2023-05-19T09:41:58.392Z,18.03
2023-05-19T09:46:55.328Z,17.29
2023-05-19T09:51:55.125Z,18.14
2023-05-19T09:57:04.846Z,18.47
2023-05-19T10:02:02.556Z,17.72
2023-05-19T10:06:59.832Z,17.18
2023-05-19T10:11:58.112Z,18.54
2023-05-19T10:16:57.011Z,18.37
2023-05-19T10:21:54.004Z,17.74
2023-05-19T10:27:00.943Z,17.93
2023-05-19T10:32:02.530Z,18.62
2023-05-19T10:37:37.687Z,18.81
2023-05-19T10:42:43.301Z,18.81
2023-05-19T10:47:43.455Z,18.98
2023-05-19T10:52:40.499Z,18.71
2023-05-19T10:57:37.084Z,19.34
2023-05-19T11:02:56.173Z,20.10
2023-05-19T11:08:07.753Z,20.31
2023-05-19T11:13:06.613Z,20.52
2023-05-19T11:18:04.664Z,20.42
2023-05-19T11:23:15.254Z,20.20
2023-05-19T11:28:13.249Z,19.96
2023-05-19T11:33:10.614Z,19.27
2023-05-19T11:38:07.596Z,19.13
2023-05-19T11:43:04.208Z,19.17
2023-05-19T11:48:03.408Z,17.99
2023-05-19T11:53:01.666Z,18.01
2023-05-19T12:02:58.832Z,18.80
2023-05-19T12:07:55.644Z,18.64
2023-05-19T12:12:53.294Z,18.18
2023-05-19T12:17:51.159Z,18.88
2023-05-19T12:22:48.085Z,19.10
2023-05-19T12:27:44.916Z,19.63
2023-05-19T12:32:42.593Z,19.59
2023-05-19T12:37:41.757Z,19.31
2023-05-19T12:42:38.219Z,19.55
2023-05-19T12:47:35.891Z,19.42
2023-05-19T12:52:35.316Z,20.22
2023-05-19T12:57:35.486Z,20.35
2023-05-19T13:02:34.207Z,20.73
2023-05-19T13:07:30.761Z,20.33
2023-05-19T13:12:27.539Z,19.54
2023-05-19T13:17:24.602Z,19.48
2023-05-19T13:22:20.968Z,20.09
2023-05-19T13:27:17.306Z,20.59
2023-05-19T13:32:13.648Z,20.55
2023-05-19T13:37:11.421Z,20.04
2023-05-19T13:42:07.982Z,20.44
2023-05-19T13:47:04.693Z,20.20
2023-05-19T13:52:01.108Z,20.44
2023-05-19T13:56:57.470Z,20.93
2023-05-19T14:01:54.016Z,21.14
2023-05-19T14:06:50.535Z,19.79
2023-05-19T14:11:47.797Z,19.40
2023-05-19T14:16:44.214Z,19.22
2023-05-19T14:21:40.924Z,19.03
2023-05-19T14:26:37.303Z,20.32
2023-05-19T14:31:33.678Z,20.57
2023-05-19T14:36:30.055Z,21.14
2023-05-19T14:41:26.680Z,21.57
2023-05-19T14:46:23.125Z,21.08
2023-05-19T14:51:19.698Z,19.99
2023-05-19T14:56:16.097Z,20.41
2023-05-19T15:01:12.549Z,20.37
2023-05-19T15:06:10.604Z,21.02
2023-05-19T15:11:07.413Z,21.55
2023-05-19T15:16:16.189Z,21.14
2023-05-19T15:21:13.615Z,20.49
2023-05-19T15:26:09.982Z,20.35
2023-05-19T15:31:06.419Z,19.45
2023-05-19T15:36:02.859Z,18.98
2023-05-19T15:40:59.244Z,19.91
2023-05-19T15:45:56.122Z,20.53
2023-05-19T15:50:52.497Z,20.92
2023-05-19T15:55:48.816Z,19.95
2023-05-19T16:00:45.321Z,19.22
2023-05-19T16:05:41.688Z,18.97
2023-05-19T16:10:38.169Z,19.67
2023-05-19T16:15:34.501Z,20.72
2023-05-19T16:20:31.125Z,21.22
2023-05-19T16:25:27.557Z,22.49
2023-05-19T16:30:26.201Z,22.17
2023-05-19T16:35:23.353Z,22.25
2023-05-19T16:40:19.961Z,21.92
2023-05-19T16:45:17.457Z,20.60
2023-05-19T16:50:13.950Z,20.27
2023-05-19T16:55:11.050Z,21.25
2023-05-19T17:00:08.205Z,26.23
2023-05-19T17:05:04.633Z,26.74
2023-05-19T17:10:00.957Z,29.32
2023-05-19T17:14:57.387Z,29.02
2023-05-19T17:19:53.767Z,28.35
2023-05-19T17:24:50.090Z,29.02
2023-05-19T17:29:46.411Z,29.88
2023-05-19T17:34:42.770Z,29.68
2023-05-19T17:39:39.203Z,26.23
2023-05-19T17:44:35.577Z,22.80
2023-05-19T17:49:31.935Z,19.96
2023-05-19T17:54:28.867Z,18.41
2023-05-19T17:59:25.560Z,17.99
2023-05-19T18:04:22.345Z,17.71
2023-05-19T18:09:19.740Z,17.70
2023-05-19T18:14:16.057Z,20.16
2023-05-19T18:19:12.488Z,22.89
2023-05-19T18:24:08.871Z,22.85
2023-05-19T18:29:05.601Z,21.22
2023-05-19T18:34:03.269Z,21.12
2023-05-19T18:39:00.046Z,20.86
2023-05-19T18:43:56.533Z,19.72
2023-05-19T18:48:52.976Z,19.30
2023-05-19T18:53:50.112Z,18.47
2023-05-19T18:58:46.455Z,17.75
2023-05-19T19:03:43.656Z,17.64
2023-05-19T19:08:40.018Z,16.94
2023-05-19T19:13:39.568Z,16.24
2023-05-19T19:18:36.518Z,15.75
2023-05-19T19:23:33.119Z,15.42
2023-05-19T19:28:29.696Z,15.17
2023-05-19T19:33:26.068Z,14.98
2023-05-19T19:38:22.431Z,14.85
2023-05-19T19:43:19.052Z,14.65
2023-05-19T19:48:15.403Z,14.47
2023-05-19T19:53:11.720Z,14.26
2023-05-19T19:58:08.058Z,14.12
2023-05-19T20:03:05.764Z,13.93
2023-05-19T20:08:02.525Z,13.87
2023-05-19T20:12:59.411Z,13.72
2023-05-19T20:17:55.963Z,13.59
2023-05-19T20:22:52.322Z,13.48
2023-05-19T20:27:48.693Z,13.26
2023-05-19T20:32:46.530Z,13.22
2023-05-19T20:37:42.977Z,13.19
2023-05-19T20:42:39.746Z,13.07
2023-05-19T20:47:36.387Z,12.95
2023-05-19T20:52:32.953Z,12.84
2023-05-19T20:57:29.321Z,12.78
2023-05-19T21:02:25.826Z,12.72
2023-05-19T21:07:22.289Z,12.57
2023-05-19T21:12:20.571Z,12.41
2023-05-19T21:17:19.257Z,12.28
2023-05-19T21:22:15.649Z,12.19
2023-05-19T21:27:12.130Z,12.05
2023-05-19T21:32:08.591Z,11.90
2023-05-19T21:37:05.453Z,11.77
2023-05-19T21:42:02.350Z,11.70
2023-05-19T21:46:58.913Z,11.65
2023-05-19T21:51:55.626Z,11.60
2023-05-19T21:56:52.019Z,11.54
2023-05-19T22:01:48.896Z,11.39
2023-05-19T22:06:45.507Z,11.33
2023-05-19T22:11:42.048Z,11.31
2023-05-19T22:16:38.575Z,11.20
2023-05-19T22:21:34.996Z,11.16
2023-05-19T22:26:31.413Z,11.13
2023-05-19T22:31:29.417Z,11.16
2023-05-19T22:36:26.030Z,11.18
2023-05-19T22:41:22.630Z,11.11
2023-05-19T22:46:19.152Z,11.14
2023-05-19T22:51:15.704Z,11.09
2023-05-19T22:56:12.542Z,11.06
2023-05-19T23:01:08.974Z,11.11
2023-05-19T23:06:05.568Z,11.10
2023-05-19T23:11:02.471Z,11.16
2023-05-19T23:15:58.948Z,11.16
2023-05-19T23:20:55.391Z,11.20
2023-05-19T23:25:51.741Z,11.39
2023-05-19T23:30:48.110Z,11.35
2023-05-19T23:35:46.264Z,11.29
2023-05-19T23:40:43.344Z,11.40
2023-05-19T23:45:39.720Z,11.25
2023-05-19T23:50:36.129Z,11.33
2023-05-19T23:55:32.666Z,11.47
